Pitmedden, United Kingdom
Current Conditions -  °F | °C
As of 1:20 AM on Friday 28 Nov 2014 (Local Time) from EGPD Reporting Station
Drizzle Drizzle  
Wind Chill: 52°   Ceiling: 300
Heat Index: 52°   Visibility: 2.8mi
Dew Point: 50°   Wind: 12mph
Humidity: 94%   Direction: 130°SE
Pressure: 29.68"   Gusts: NA
Location:  57.34°N, 2.18°W
Report Text: EGPD 280120Z AUTO 13010KT 4500 DZ OVC003/// 11/10 Q1005
Loading
Personal Weather Stations






























Interactive Weather Map New forecast layout! Learn more

10-Day Weather Forecast

Advertisements
Track Severe Weather on mobile